Dubois Muni Information

FAA: DUB - ICAO: KDUB

Dubois Muni (Airport) Location

State Wyoming
County Fremont
City Dubois
Dubois Muni (Airport) is 3 miles northwest of Dubois, WY.
Latitude 43-32-55.1450N
Longitude 109-41-26.9800W
Elevation 7,298ft

Dubois Muni METARs

METAR KDUB 281455Z AUTO 28016G23KT 10SM OVC040 03/M03 A3031 RMK AO2
Altimeter 30.31"
Temperature 3.0°C (37.4°F)
Wind 280° at 16KT with gusts to 23KT
Clouds overcast at 4,000ft
Visibility 10.0mi
Time observed: 2021-10-28T14:55:00Z

Dubois Muni (Airport) Details

Status Operational
Activation September 1957
Ownership Public
Usage Public
Chart SALT LAKE CITY
ATC on-site No
Beacon schedule sunset-sunrise
Beacon color clear green

Dubois Muni (Airport) Contacts

Owner TOWN OF DUBOIS
Owner address BOX 555, DUBOIS, WY 82513
Owner phone 307-455-2345
Manager ROBIN IRWIN
Manager address BOX 2001, CASPER, WY 82602
Manager phone 307-262-0606

Dubois Muni Radio Frequencies

Dubois Muni (Airport) Radio Frequencies

UNICOM N/A
Common traffic advisory frequency (CTAF) 122.9